sensor_id;sensor_type;location;lat;lon;timestamp;temperature;humidity
7046;DHT22;3564;53.326;10.356;2023-05-07T00:00:36;13.60;97.80
7046;DHT22;3564;53.326;10.356;2023-05-07T00:03:03;13.60;97.70
7046;DHT22;3564;53.326;10.356;2023-05-07T00:05:28;13.60;97.80
7046;DHT22;3564;53.326;10.356;2023-05-07T00:07:54;13.60;97.80
7046;DHT22;3564;53.326;10.356;2023-05-07T00:10:19;13.60;97.80
7046;DHT22;3564;53.326;10.356;2023-05-07T00:12:45;13.60;97.80
7046;DHT22;3564;53.326;10.356;2023-05-07T00:15:11;13.60;97.80
7046;DHT22;3564;53.326;10.356;2023-05-07T00:17:37;13.60;97.80
7046;DHT22;3564;53.326;10.356;2023-05-07T00:20:05;13.60;97.70
7046;DHT22;3564;53.326;10.356;2023-05-07T00:22:31;13.60;97.60
7046;DHT22;3564;53.326;10.356;2023-05-07T00:24:58;13.60;97.60
7046;DHT22;3564;53.326;10.356;2023-05-07T00:27:24;13.60;97.40
7046;DHT22;3564;53.326;10.356;2023-05-07T00:29:50;13.60;97.40
7046;DHT22;3564;53.326;10.356;2023-05-07T00:32:16;13.60;97.40
7046;DHT22;3564;53.326;10.356;2023-05-07T00:34:42;13.60;97.30
7046;DHT22;3564;53.326;10.356;2023-05-07T00:37:07;13.60;97.30
7046;DHT22;3564;53.326;10.356;2023-05-07T00:39:34;13.60;97.30
7046;DHT22;3564;53.326;10.356;2023-05-07T00:42:00;13.60;97.30
7046;DHT22;3564;53.326;10.356;2023-05-07T00:44:26;13.60;97.30
7046;DHT22;3564;53.326;10.356;2023-05-07T00:46:53;13.60;97.30
7046;DHT22;3564;53.326;10.356;2023-05-07T00:49:19;13.60;97.40
7046;DHT22;3564;53.326;10.356;2023-05-07T00:51:45;13.60;97.40
7046;DHT22;3564;53.326;10.356;2023-05-07T00:54:11;13.60;97.40
7046;DHT22;3564;53.326;10.356;2023-05-07T00:56:36;13.60;97.40
7046;DHT22;3564;53.326;10.356;2023-05-07T00:59:03;13.60;97.30
7046;DHT22;3564;53.326;10.356;2023-05-07T01:01:28;13.60;97.20
7046;DHT22;3564;53.326;10.356;2023-05-07T01:03:54;13.60;97.10
7046;DHT22;3564;53.326;10.356;2023-05-07T01:06:22;13.60;97.00
7046;DHT22;3564;53.326;10.356;2023-05-07T01:08:48;13.60;97.00
7046;DHT22;3564;53.326;10.356;2023-05-07T01:11:20;13.60;96.90
7046;DHT22;3564;53.326;10.356;2023-05-07T01:13:47;13.60;96.90
7046;DHT22;3564;53.326;10.356;2023-05-07T01:16:13;13.60;96.90
7046;DHT22;3564;53.326;10.356;2023-05-07T01:18:38;13.60;96.90
7046;DHT22;3564;53.326;10.356;2023-05-07T01:21:05;13.60;96.90
7046;DHT22;3564;53.326;10.356;2023-05-07T01:23:33;13.60;96.90
7046;DHT22;3564;53.326;10.356;2023-05-07T01:25:59;13.50;96.80
7046;DHT22;3564;53.326;10.356;2023-05-07T01:28:24;13.60;96.80
7046;DHT22;3564;53.326;10.356;2023-05-07T01:30:54;13.60;96.80
7046;DHT22;3564;53.326;10.356;2023-05-07T01:33:21;13.60;96.70
7046;DHT22;3564;53.326;10.356;2023-05-07T01:35:50;13.50;96.60
7046;DHT22;3564;53.326;10.356;2023-05-07T01:38:17;13.50;96.60
7046;DHT22;3564;53.326;10.356;2023-05-07T01:40:43;13.60;96.60
7046;DHT22;3564;53.326;10.356;2023-05-07T01:43:09;13.50;96.50
7046;DHT22;3564;53.326;10.356;2023-05-07T01:45:36;13.50;96.40
7046;DHT22;3564;53.326;10.356;2023-05-07T01:48:02;13.60;96.50
7046;DHT22;3564;53.326;10.356;2023-05-07T01:50:29;13.60;96.40
7046;DHT22;3564;53.326;10.356;2023-05-07T01:52:56;13.50;96.40
7046;DHT22;3564;53.326;10.356;2023-05-07T01:55:21;13.60;96.40
7046;DHT22;3564;53.326;10.356;2023-05-07T01:57:47;13.60;96.40
7046;DHT22;3564;53.326;10.356;2023-05-07T02:00:13;13.60;96.40
7046;DHT22;3564;53.326;10.356;2023-05-07T02:02:38;13.50;96.50
7046;DHT22;3564;53.326;10.356;2023-05-07T02:05:06;13.60;96.50
7046;DHT22;3564;53.326;10.356;2023-05-07T02:07:31;13.60;96.50
7046;DHT22;3564;53.326;10.356;2023-05-07T02:09:57;13.60;96.50
7046;DHT22;3564;53.326;10.356;2023-05-07T02:12:23;13.60;96.60
7046;DHT22;3564;53.326;10.356;2023-05-07T02:14:49;13.50;96.80
7046;DHT22;3564;53.326;10.356;2023-05-07T02:17:14;13.50;96.50
7046;DHT22;3564;53.326;10.356;2023-05-07T02:19:40;13.50;96.60
7046;DHT22;3564;53.326;10.356;2023-05-07T02:22:06;13.50;96.60
7046;DHT22;3564;53.326;10.356;2023-05-07T02:24:32;13.50;96.70
7046;DHT22;3564;53.326;10.356;2023-05-07T02:26:57;13.50;97.00
7046;DHT22;3564;53.326;10.356;2023-05-07T02:29:23;13.50;96.80
7046;DHT22;3564;53.326;10.356;2023-05-07T02:31:48;13.50;96.70
7046;DHT22;3564;53.326;10.356;2023-05-07T02:34:18;13.50;96.70
7046;DHT22;3564;53.326;10.356;2023-05-07T02:36:44;13.50;96.90
7046;DHT22;3564;53.326;10.356;2023-05-07T02:39:09;13.50;96.70
7046;DHT22;3564;53.326;10.356;2023-05-07T02:41:35;13.40;96.70
7046;DHT22;3564;53.326;10.356;2023-05-07T02:44:02;13.40;96.70
7046;DHT22;3564;53.326;10.356;2023-05-07T02:46:27;13.50;96.70
7046;DHT22;3564;53.326;10.356;2023-05-07T02:48:53;13.50;96.70
7046;DHT22;3564;53.326;10.356;2023-05-07T02:51:22;13.50;96.70
7046;DHT22;3564;53.326;10.356;2023-05-07T02:53:48;13.50;96.60
7046;DHT22;3564;53.326;10.356;2023-05-07T02:56:14;13.50;96.60
7046;DHT22;3564;53.326;10.356;2023-05-07T02:58:39;13.50;96.50
7046;DHT22;3564;53.326;10.356;2023-05-07T03:01:07;13.50;96.50
7046;DHT22;3564;53.326;10.356;2023-05-07T03:03:33;13.50;96.50
7046;DHT22;3564;53.326;10.356;2023-05-07T03:05:59;13.40;96.50
7046;DHT22;3564;53.326;10.356;2023-05-07T03:08:25;13.40;96.50
7046;DHT22;3564;53.326;10.356;2023-05-07T03:10:51;13.40;96.50
7046;DHT22;3564;53.326;10.356;2023-05-07T03:13:16;13.40;96.50
7046;DHT22;3564;53.326;10.356;2023-05-07T03:15:42;13.40;96.40
7046;DHT22;3564;53.326;10.356;2023-05-07T03:18:08;13.40;96.40
7046;DHT22;3564;53.326;10.356;2023-05-07T03:20:33;13.40;96.40
7046;DHT22;3564;53.326;10.356;2023-05-07T03:22:59;13.40;96.40
7046;DHT22;3564;53.326;10.356;2023-05-07T03:25:25;13.50;96.30
7046;DHT22;3564;53.326;10.356;2023-05-07T03:27:51;13.40;96.30
7046;DHT22;3564;53.326;10.356;2023-05-07T03:30:16;13.50;96.30
7046;DHT22;3564;53.326;10.356;2023-05-07T03:32:42;13.50;96.40
7046;DHT22;3564;53.326;10.356;2023-05-07T03:35:08;13.50;96.40
7046;DHT22;3564;53.326;10.356;2023-05-07T03:37:33;13.40;96.40
7046;DHT22;3564;53.326;10.356;2023-05-07T03:39:59;13.40;96.40
7046;DHT22;3564;53.326;10.356;2023-05-07T03:42:26;13.40;96.40
7046;DHT22;3564;53.326;10.356;2023-05-07T03:44:51;13.50;96.40
7046;DHT22;3564;53.326;10.356;2023-05-07T03:47:17;13.40;96.40
7046;DHT22;3564;53.326;10.356;2023-05-07T03:49:42;13.40;96.50
7046;DHT22;3564;53.326;10.356;2023-05-07T03:52:08;13.40;96.40
7046;DHT22;3564;53.326;10.356;2023-05-07T03:54:33;13.40;96.50
7046;DHT22;3564;53.326;10.356;2023-05-07T03:56:59;13.40;96.50
7046;DHT22;3564;53.326;10.356;2023-05-07T03:59:25;13.40;96.50
7046;DHT22;3564;53.326;10.356;2023-05-07T04:01:50;13.40;96.50
7046;DHT22;3564;53.326;10.356;2023-05-07T04:04:16;13.40;96.50
7046;DHT22;3564;53.326;10.356;2023-05-07T04:06:42;13.40;96.50
7046;DHT22;3564;53.326;10.356;2023-05-07T04:09:07;13.40;96.50
7046;DHT22;3564;53.326;10.356;2023-05-07T04:11:33;13.40;96.50
7046;DHT22;3564;53.326;10.356;2023-05-07T04:13:59;13.40;96.50
7046;DHT22;3564;53.326;10.356;2023-05-07T04:16:24;13.40;96.50
7046;DHT22;3564;53.326;10.356;2023-05-07T04:18:50;13.50;96.50
7046;DHT22;3564;53.326;10.356;2023-05-07T04:21:20;13.50;96.50
7046;DHT22;3564;53.326;10.356;2023-05-07T04:23:47;13.40;96.60
7046;DHT22;3564;53.326;10.356;2023-05-07T04:26:13;13.40;96.60
7046;DHT22;3564;53.326;10.356;2023-05-07T04:28:39;13.40;96.60
7046;DHT22;3564;53.326;10.356;2023-05-07T04:31:05;13.50;96.60
7046;DHT22;3564;53.326;10.356;2023-05-07T04:33:31;13.50;96.60
7046;DHT22;3564;53.326;10.356;2023-05-07T04:35:58;13.40;96.50
7046;DHT22;3564;53.326;10.356;2023-05-07T04:38:30;13.40;96.50
7046;DHT22;3564;53.326;10.356;2023-05-07T04:41:02;13.40;96.50
7046;DHT22;3564;53.326;10.356;2023-05-07T04:43:28;13.50;96.60
7046;DHT22;3564;53.326;10.356;2023-05-07T04:45:54;13.50;96.60
7046;DHT22;3564;53.326;10.356;2023-05-07T04:48:19;13.50;96.60
7046;DHT22;3564;53.326;10.356;2023-05-07T04:50:49;13.50;96.70
7046;DHT22;3564;53.326;10.356;2023-05-07T04:53:16;13.50;96.70
7046;DHT22;3564;53.326;10.356;2023-05-07T04:55:42;13.50;96.70
7046;DHT22;3564;53.326;10.356;2023-05-07T04:58:08;13.50;96.70
7046;DHT22;3564;53.326;10.356;2023-05-07T05:00:34;13.50;96.70
7046;DHT22;3564;53.326;10.356;2023-05-07T05:02:59;13.50;96.70
7046;DHT22;3564;53.326;10.356;2023-05-07T05:05:25;13.50;96.70
7046;DHT22;3564;53.326;10.356;2023-05-07T05:07:51;13.50;96.70
7046;DHT22;3564;53.326;10.356;2023-05-07T05:10:17;13.50;96.70
7046;DHT22;3564;53.326;10.356;2023-05-07T05:12:43;13.60;96.80
7046;DHT22;3564;53.326;10.356;2023-05-07T05:15:09;13.60;96.70
7046;DHT22;3564;53.326;10.356;2023-05-07T05:17:35;13.60;96.70
7046;DHT22;3564;53.326;10.356;2023-05-07T05:20:02;13.60;96.70
7046;DHT22;3564;53.326;10.356;2023-05-07T05:22:27;13.60;96.70
7046;DHT22;3564;53.326;10.356;2023-05-07T05:24:55;13.60;96.70
7046;DHT22;3564;53.326;10.356;2023-05-07T05:27:20;13.60;96.80
7046;DHT22;3564;53.326;10.356;2023-05-07T05:29:46;13.60;96.80
7046;DHT22;3564;53.326;10.356;2023-05-07T05:32:11;13.60;96.80
7046;DHT22;3564;53.326;10.356;2023-05-07T05:34:37;13.60;96.80
7046;DHT22;3564;53.326;10.356;2023-05-07T05:37:02;13.60;96.70
7046;DHT22;3564;53.326;10.356;2023-05-07T05:39:28;13.60;96.60
7046;DHT22;3564;53.326;10.356;2023-05-07T05:41:53;13.60;96.60
7046;DHT22;3564;53.326;10.356;2023-05-07T05:44:19;13.70;96.70
7046;DHT22;3564;53.326;10.356;2023-05-07T05:46:45;13.70;96.60
7046;DHT22;3564;53.326;10.356;2023-05-07T05:49:10;13.70;96.60
7046;DHT22;3564;53.326;10.356;2023-05-07T05:51:36;13.70;96.60
7046;DHT22;3564;53.326;10.356;2023-05-07T05:54:01;13.70;96.60
7046;DHT22;3564;53.326;10.356;2023-05-07T05:56:27;13.70;96.60
7046;DHT22;3564;53.326;10.356;2023-05-07T05:58:53;13.70;96.60
7046;DHT22;3564;53.326;10.356;2023-05-07T06:01:18;13.70;96.50
7046;DHT22;3564;53.326;10.356;2023-05-07T06:03:44;13.80;96.50
7046;DHT22;3564;53.326;10.356;2023-05-07T06:06:10;13.80;96.50
7046;DHT22;3564;53.326;10.356;2023-05-07T06:08:36;13.80;96.50
7046;DHT22;3564;53.326;10.356;2023-05-07T06:11:02;13.80;96.40
7046;DHT22;3564;53.326;10.356;2023-05-07T06:13:28;13.80;96.30
7046;DHT22;3564;53.326;10.356;2023-05-07T06:15:54;13.80;96.30
7046;DHT22;3564;53.326;10.356;2023-05-07T06:18:19;13.80;96.30
7046;DHT22;3564;53.326;10.356;2023-05-07T06:20:45;13.90;96.30
7046;DHT22;3564;53.326;10.356;2023-05-07T06:23:11;13.90;96.30
7046;DHT22;3564;53.326;10.356;2023-05-07T06:25:36;13.90;96.30
7046;DHT22;3564;53.326;10.356;2023-05-07T06:28:02;13.90;96.30
7046;DHT22;3564;53.326;10.356;2023-05-07T06:30:28;13.90;96.30
7046;DHT22;3564;53.326;10.356;2023-05-07T06:32:53;13.90;96.30
7046;DHT22;3564;53.326;10.356;2023-05-07T06:35:19;13.90;96.40
7046;DHT22;3564;53.326;10.356;2023-05-07T06:37:44;13.90;96.30
7046;DHT22;3564;53.326;10.356;2023-05-07T06:40:10;13.90;96.30
7046;DHT22;3564;53.326;10.356;2023-05-07T06:42:36;13.90;96.30
7046;DHT22;3564;53.326;10.356;2023-05-07T06:45:02;13.90;96.30
7046;DHT22;3564;53.326;10.356;2023-05-07T06:47:28;13.90;96.20
7046;DHT22;3564;53.326;10.356;2023-05-07T06:49:54;14.00;96.20
7046;DHT22;3564;53.326;10.356;2023-05-07T06:52:19;14.00;96.20
7046;DHT22;3564;53.326;10.356;2023-05-07T06:54:45;14.00;96.10
7046;DHT22;3564;53.326;10.356;2023-05-07T06:57:10;14.00;96.10
7046;DHT22;3564;53.326;10.356;2023-05-07T06:59:36;14.00;96.00
7046;DHT22;3564;53.326;10.356;2023-05-07T07:02:02;14.00;96.10
7046;DHT22;3564;53.326;10.356;2023-05-07T07:04:27;14.10;96.10
7046;DHT22;3564;53.326;10.356;2023-05-07T07:06:54;14.10;96.10
7046;DHT22;3564;53.326;10.356;2023-05-07T07:09:19;14.10;96.10
7046;DHT22;3564;53.326;10.356;2023-05-07T07:11:45;14.10;96.10
7046;DHT22;3564;53.326;10.356;2023-05-07T07:14:10;14.10;96.10
7046;DHT22;3564;53.326;10.356;2023-05-07T07:16:36;14.10;96.00
7046;DHT22;3564;53.326;10.356;2023-05-07T07:19:02;14.10;96.00
7046;DHT22;3564;53.326;10.356;2023-05-07T07:21:27;14.20;96.10
7046;DHT22;3564;53.326;10.356;2023-05-07T07:23:53;14.20;96.10
7046;DHT22;3564;53.326;10.356;2023-05-07T07:26:18;14.20;96.10
7046;DHT22;3564;53.326;10.356;2023-05-07T07:28:45;14.20;96.10
7046;DHT22;3564;53.326;10.356;2023-05-07T07:31:11;14.30;96.20
7046;DHT22;3564;53.326;10.356;2023-05-07T07:33:36;14.30;96.20
7046;DHT22;3564;53.326;10.356;2023-05-07T07:36:02;14.30;96.20
7046;DHT22;3564;53.326;10.356;2023-05-07T07:38:28;14.30;96.20
7046;DHT22;3564;53.326;10.356;2023-05-07T07:40:53;14.40;96.20
7046;DHT22;3564;53.326;10.356;2023-05-07T07:43:19;14.40;96.10
7046;DHT22;3564;53.326;10.356;2023-05-07T07:45:45;14.40;96.00
7046;DHT22;3564;53.326;10.356;2023-05-07T07:48:11;14.40;96.00
7046;DHT22;3564;53.326;10.356;2023-05-07T07:50:37;14.40;96.00
7046;DHT22;3564;53.326;10.356;2023-05-07T07:53:03;14.40;96.00
7046;DHT22;3564;53.326;10.356;2023-05-07T07:55:28;14.40;96.10
7046;DHT22;3564;53.326;10.356;2023-05-07T07:57:54;14.40;96.20
7046;DHT22;3564;53.326;10.356;2023-05-07T08:00:20;14.50;96.20
7046;DHT22;3564;53.326;10.356;2023-05-07T08:02:45;14.50;96.10
7046;DHT22;3564;53.326;10.356;2023-05-07T08:05:11;14.50;96.00
7046;DHT22;3564;53.326;10.356;2023-05-07T08:07:36;14.50;95.80
7046;DHT22;3564;53.326;10.356;2023-05-07T08:10:02;14.60;95.80
7046;DHT22;3564;53.326;10.356;2023-05-07T08:12:28;14.60;95.80
7046;DHT22;3564;53.326;10.356;2023-05-07T08:14:54;14.60;95.80
7046;DHT22;3564;53.326;10.356;2023-05-07T08:17:20;14.60;95.80
7046;DHT22;3564;53.326;10.356;2023-05-07T08:19:49;14.60;95.70
7046;DHT22;3564;53.326;10.356;2023-05-07T08:22:14;14.70;95.70
7046;DHT22;3564;53.326;10.356;2023-05-07T08:24:40;14.70;95.70
7046;DHT22;3564;53.326;10.356;2023-05-07T08:27:06;14.70;95.70
7046;DHT22;3564;53.326;10.356;2023-05-07T08:29:31;14.80;95.80
7046;DHT22;3564;53.326;10.356;2023-05-07T08:31:57;14.80;95.80
7046;DHT22;3564;53.326;10.356;2023-05-07T08:34:23;14.80;95.80
7046;DHT22;3564;53.326;10.356;2023-05-07T08:36:48;14.90;95.80
7046;DHT22;3564;53.326;10.356;2023-05-07T08:39:15;14.90;95.80
7046;DHT22;3564;53.326;10.356;2023-05-07T08:41:46;14.90;95.70
7046;DHT22;3564;53.326;10.356;2023-05-07T08:44:13;14.90;96.00
7046;DHT22;3564;53.326;10.356;2023-05-07T08:46:39;15.00;95.70
7046;DHT22;3564;53.326;10.356;2023-05-07T08:49:07;15.00;95.60
7046;DHT22;3564;53.326;10.356;2023-05-07T08:51:33;15.10;95.60
7046;DHT22;3564;53.326;10.356;2023-05-07T08:53:59;15.10;95.60
7046;DHT22;3564;53.326;10.356;2023-05-07T08:56:26;15.10;95.50
7046;DHT22;3564;53.326;10.356;2023-05-07T08:58:52;15.10;95.40
7046;DHT22;3564;53.326;10.356;2023-05-07T09:01:21;15.20;95.50
7046;DHT22;3564;53.326;10.356;2023-05-07T09:03:47;15.20;95.40
7046;DHT22;3564;53.326;10.356;2023-05-07T09:06:13;15.20;95.30
7046;DHT22;3564;53.326;10.356;2023-05-07T09:08:38;15.20;95.10
7046;DHT22;3564;53.326;10.356;2023-05-07T09:11:04;15.20;95.00
7046;DHT22;3564;53.326;10.356;2023-05-07T09:13:30;15.30;95.10
7046;DHT22;3564;53.326;10.356;2023-05-07T09:15:55;15.30;95.20
7046;DHT22;3564;53.326;10.356;2023-05-07T09:18:23;15.30;95.20
7046;DHT22;3564;53.326;10.356;2023-05-07T09:20:48;15.30;95.10
7046;DHT22;3564;53.326;10.356;2023-05-07T09:23:14;15.40;95.00
7046;DHT22;3564;53.326;10.356;2023-05-07T09:25:40;15.40;94.90
7046;DHT22;3564;53.326;10.356;2023-05-07T09:28:06;15.40;94.70
7046;DHT22;3564;53.326;10.356;2023-05-07T09:30:33;15.50;94.80
7046;DHT22;3564;53.326;10.356;2023-05-07T09:33:00;15.50;94.80
7046;DHT22;3564;53.326;10.356;2023-05-07T09:35:29;15.50;94.60
7046;DHT22;3564;53.326;10.356;2023-05-07T09:37:59;15.50;94.60
7046;DHT22;3564;53.326;10.356;2023-05-07T09:40:27;15.50;94.60
7046;DHT22;3564;53.326;10.356;2023-05-07T09:42:53;15.50;94.60
7046;DHT22;3564;53.326;10.356;2023-05-07T09:45:28;15.60;94.60
7046;DHT22;3564;53.326;10.356;2023-05-07T09:47:57;15.50;94.60
7046;DHT22;3564;53.326;10.356;2023-05-07T09:50:36;15.60;94.70
7046;DHT22;3564;53.326;10.356;2023-05-07T09:53:03;15.60;94.70
7046;DHT22;3564;53.326;10.356;2023-05-07T09:55:28;15.60;94.70
7046;DHT22;3564;53.326;10.356;2023-05-07T09:57:55;15.60;94.70
7046;DHT22;3564;53.326;10.356;2023-05-07T10:00:21;15.70;94.80
7046;DHT22;3564;53.326;10.356;2023-05-07T10:02:50;15.70;94.90
7046;DHT22;3564;53.326;10.356;2023-05-07T10:05:18;15.80;94.80
7046;DHT22;3564;53.326;10.356;2023-05-07T10:07:45;15.80;94.70
7046;DHT22;3564;53.326;10.356;2023-05-07T10:10:11;15.80;94.50
7046;DHT22;3564;53.326;10.356;2023-05-07T10:12:37;15.80;94.40
7046;DHT22;3564;53.326;10.356;2023-05-07T10:15:06;15.80;94.50
7046;DHT22;3564;53.326;10.356;2023-05-07T10:17:38;15.80;94.40
7046;DHT22;3564;53.326;10.356;2023-05-07T10:20:05;15.80;94.40
7046;DHT22;3564;53.326;10.356;2023-05-07T10:22:39;15.80;94.30
7046;DHT22;3564;53.326;10.356;2023-05-07T10:25:18;15.90;94.40
7046;DHT22;3564;53.326;10.356;2023-05-07T10:27:45;15.90;94.40
7046;DHT22;3564;53.326;10.356;2023-05-07T10:30:48;15.90;94.30
7046;DHT22;3564;53.326;10.356;2023-05-07T10:33:21;16.00;94.20
7046;DHT22;3564;53.326;10.356;2023-05-07T10:35:48;16.00;94.30
7046;DHT22;3564;53.326;10.356;2023-05-07T10:38:14;16.10;94.30
7046;DHT22;3564;53.326;10.356;2023-05-07T10:40:39;16.10;94.30
7046;DHT22;3564;53.326;10.356;2023-05-07T10:43:05;16.10;94.30
7046;DHT22;3564;53.326;10.356;2023-05-07T10:45:32;16.20;94.30
7046;DHT22;3564;53.326;10.356;2023-05-07T10:48:15;16.20;94.20
7046;DHT22;3564;53.326;10.356;2023-05-07T10:50:42;16.30;94.10
7046;DHT22;3564;53.326;10.356;2023-05-07T10:58:43;16.40;93.70
7046;DHT22;3564;53.326;10.356;2023-05-07T11:01:09;16.40;93.60
7046;DHT22;3564;53.326;10.356;2023-05-07T11:04:12;16.40;93.70
7046;DHT22;3564;53.326;10.356;2023-05-07T11:06:39;16.40;93.90
7046;DHT22;3564;53.326;10.356;2023-05-07T11:09:05;16.40;93.70
7046;DHT22;3564;53.326;10.356;2023-05-07T11:11:47;16.40;93.70
7046;DHT22;3564;53.326;10.356;2023-05-07T11:17:09;16.50;93.70
7046;DHT22;3564;53.326;10.356;2023-05-07T11:19:55;16.50;93.60
7046;DHT22;3564;53.326;10.356;2023-05-07T11:25:05;16.60;93.50
7046;DHT22;3564;53.326;10.356;2023-05-07T11:27:31;16.60;93.40
7046;DHT22;3564;53.326;10.356;2023-05-07T11:29:57;16.70;93.40
7046;DHT22;3564;53.326;10.356;2023-05-07T11:32:24;16.70;93.30
7046;DHT22;3564;53.326;10.356;2023-05-07T11:34:54;16.70;93.20
7046;DHT22;3564;53.326;10.356;2023-05-07T11:37:20;16.80;93.20
7046;DHT22;3564;53.326;10.356;2023-05-07T11:39:46;16.80;93.30
7046;DHT22;3564;53.326;10.356;2023-05-07T11:42:31;16.90;93.20
7046;DHT22;3564;53.326;10.356;2023-05-07T11:44:58;17.00;93.30
7046;DHT22;3564;53.326;10.356;2023-05-07T11:47:24;17.10;93.30
7046;DHT22;3564;53.326;10.356;2023-05-07T11:49:51;17.20;93.30
7046;DHT22;3564;53.326;10.356;2023-05-07T11:52:18;17.30;93.30
7046;DHT22;3564;53.326;10.356;2023-05-07T11:54:55;17.30;93.30
7046;DHT22;3564;53.326;10.356;2023-05-07T11:57:23;17.40;93.40
7046;DHT22;3564;53.326;10.356;2023-05-07T11:59:53;17.50;93.20
7046;DHT22;3564;53.326;10.356;2023-05-07T12:02:19;17.60;93.10
7046;DHT22;3564;53.326;10.356;2023-05-07T12:04:44;17.60;93.00
7046;DHT22;3564;53.326;10.356;2023-05-07T12:07:14;17.60;92.80
7046;DHT22;3564;53.326;10.356;2023-05-07T12:09:42;17.70;92.70
7046;DHT22;3564;53.326;10.356;2023-05-07T12:12:08;17.70;92.60
7046;DHT22;3564;53.326;10.356;2023-05-07T12:14:38;17.80;92.70
7046;DHT22;3564;53.326;10.356;2023-05-07T12:17:05;17.90;92.70
7046;DHT22;3564;53.326;10.356;2023-05-07T12:19:31;17.90;92.50
7046;DHT22;3564;53.326;10.356;2023-05-07T12:21:57;17.90;92.40
7046;DHT22;3564;53.326;10.356;2023-05-07T12:24:23;18.00;92.40
7046;DHT22;3564;53.326;10.356;2023-05-07T12:26:50;18.10;92.20
7046;DHT22;3564;53.326;10.356;2023-05-07T12:29:15;18.20;92.30
7046;DHT22;3564;53.326;10.356;2023-05-07T12:31:42;18.20;92.00
7046;DHT22;3564;53.326;10.356;2023-05-07T12:34:10;18.40;92.00
7046;DHT22;3564;53.326;10.356;2023-05-07T12:36:39;18.40;91.70
7046;DHT22;3564;53.326;10.356;2023-05-07T12:39:09;18.60;91.70
7046;DHT22;3564;53.326;10.356;2023-05-07T12:44:22;18.70;91.70
7046;DHT22;3564;53.326;10.356;2023-05-07T12:46:50;18.80;91.70
7046;DHT22;3564;53.326;10.356;2023-05-07T12:49:15;18.80;91.50
7046;DHT22;3564;53.326;10.356;2023-05-07T12:51:43;18.90;91.30
7046;DHT22;3564;53.326;10.356;2023-05-07T12:54:09;18.90;91.30
7046;DHT22;3564;53.326;10.356;2023-05-07T12:56:37;18.90;91.20
7046;DHT22;3564;53.326;10.356;2023-05-07T12:59:03;19.00;91.10
7046;DHT22;3564;53.326;10.356;2023-05-07T13:01:29;19.00;90.90
7046;DHT22;3564;53.326;10.356;2023-05-07T13:04:01;19.00;90.90
7046;DHT22;3564;53.326;10.356;2023-05-07T13:06:29;19.10;90.90
7046;DHT22;3564;53.326;10.356;2023-05-07T13:08:55;19.10;90.90
7046;DHT22;3564;53.326;10.356;2023-05-07T13:11:21;19.20;91.20
7046;DHT22;3564;53.326;10.356;2023-05-07T13:13:46;19.30;91.40
7046;DHT22;3564;53.326;10.356;2023-05-07T13:16:12;19.30;91.20
7046;DHT22;3564;53.326;10.356;2023-05-07T13:18:39;19.40;91.10
7046;DHT22;3564;53.326;10.356;2023-05-07T13:21:05;19.40;91.10
7046;DHT22;3564;53.326;10.356;2023-05-07T13:23:30;19.50;91.10
7046;DHT22;3564;53.326;10.356;2023-05-07T13:25:56;19.50;91.10
7046;DHT22;3564;53.326;10.356;2023-05-07T13:28:23;19.60;91.00
7046;DHT22;3564;53.326;10.356;2023-05-07T13:31:01;19.60;90.90
7046;DHT22;3564;53.326;10.356;2023-05-07T13:33:27;19.70;90.70
7046;DHT22;3564;53.326;10.356;2023-05-07T13:35:52;19.70;90.30
7046;DHT22;3564;53.326;10.356;2023-05-07T13:38:21;19.80;90.30
7046;DHT22;3564;53.326;10.356;2023-05-07T13:40:46;19.80;90.10
7046;DHT22;3564;53.326;10.356;2023-05-07T13:43:12;19.90;90.20
7046;DHT22;3564;53.326;10.356;2023-05-07T13:45:37;19.90;89.80
7046;DHT22;3564;53.326;10.356;2023-05-07T13:48:03;19.90;89.90
7046;DHT22;3564;53.326;10.356;2023-05-07T13:50:30;20.00;90.50
7046;DHT22;3564;53.326;10.356;2023-05-07T13:52:55;20.10;90.30
7046;DHT22;3564;53.326;10.356;2023-05-07T13:55:22;20.10;89.70
7046;DHT22;3564;53.326;10.356;2023-05-07T13:57:55;20.20;89.50
7046;DHT22;3564;53.326;10.356;2023-05-07T14:00:22;20.30;89.20
7046;DHT22;3564;53.326;10.356;2023-05-07T14:02:48;20.40;88.90
7046;DHT22;3564;53.326;10.356;2023-05-07T14:05:14;20.50;88.20
7046;DHT22;3564;53.326;10.356;2023-05-07T14:07:39;20.60;88.50
7046;DHT22;3564;53.326;10.356;2023-05-07T14:10:05;20.70;88.30
7046;DHT22;3564;53.326;10.356;2023-05-07T14:12:32;20.80;88.30
7046;DHT22;3564;53.326;10.356;2023-05-07T14:14:58;20.90;87.40
7046;DHT22;3564;53.326;10.356;2023-05-07T14:17:23;21.10;86.70
7046;DHT22;3564;53.326;10.356;2023-05-07T14:19:51;21.10;86.50
7046;DHT22;3564;53.326;10.356;2023-05-07T14:22:23;21.20;86.10
7046;DHT22;3564;53.326;10.356;2023-05-07T14:24:49;21.30;85.60
7046;DHT22;3564;53.326;10.356;2023-05-07T14:27:15;21.40;86.00
7046;DHT22;3564;53.326;10.356;2023-05-07T14:29:42;21.40;85.90
7046;DHT22;3564;53.326;10.356;2023-05-07T14:32:08;21.40;85.00
7046;DHT22;3564;53.326;10.356;2023-05-07T14:34:34;21.40;85.20
7046;DHT22;3564;53.326;10.356;2023-05-07T14:37:00;21.40;86.00
7046;DHT22;3564;53.326;10.356;2023-05-07T14:39:25;21.50;85.20
7046;DHT22;3564;53.326;10.356;2023-05-07T14:41:51;21.50;83.90
7046;DHT22;3564;53.326;10.356;2023-05-07T14:44:17;21.60;83.50
7046;DHT22;3564;53.326;10.356;2023-05-07T14:46:42;21.70;83.00
7046;DHT22;3564;53.326;10.356;2023-05-07T14:49:08;21.80;83.40
7046;DHT22;3564;53.326;10.356;2023-05-07T14:51:43;21.90;83.10
7046;DHT22;3564;53.326;10.356;2023-05-07T14:54:09;22.00;83.00
7046;DHT22;3564;53.326;10.356;2023-05-07T14:56:35;22.10;83.20
7046;DHT22;3564;53.326;10.356;2023-05-07T14:59:02;22.10;83.30
7046;DHT22;3564;53.326;10.356;2023-05-07T15:01:28;22.30;83.00
7046;DHT22;3564;53.326;10.356;2023-05-07T15:03:53;22.50;83.80
7046;DHT22;3564;53.326;10.356;2023-05-07T15:06:19;22.60;83.30
7046;DHT22;3564;53.326;10.356;2023-05-07T15:08:51;22.70;82.60
7046;DHT22;3564;53.326;10.356;2023-05-07T15:11:16;22.80;82.10
7046;DHT22;3564;53.326;10.356;2023-05-07T15:13:42;22.90;81.30
7046;DHT22;3564;53.326;10.356;2023-05-07T15:16:08;22.90;81.90
7046;DHT22;3564;53.326;10.356;2023-05-07T15:18:33;22.80;81.50
7046;DHT22;3564;53.326;10.356;2023-05-07T15:20:59;22.80;81.30
7046;DHT22;3564;53.326;10.356;2023-05-07T15:23:28;22.80;81.20
7046;DHT22;3564;53.326;10.356;2023-05-07T15:25:54;22.80;81.10
7046;DHT22;3564;53.326;10.356;2023-05-07T15:28:19;22.80;80.90
7046;DHT22;3564;53.326;10.356;2023-05-07T15:30:45;22.90;80.90
7046;DHT22;3564;53.326;10.356;2023-05-07T15:33:11;22.90;80.80
7046;DHT22;3564;53.326;10.356;2023-05-07T15:35:36;22.90;80.30
7046;DHT22;3564;53.326;10.356;2023-05-07T15:38:02;22.80;80.70
7046;DHT22;3564;53.326;10.356;2023-05-07T15:40:28;22.70;80.10
7046;DHT22;3564;53.326;10.356;2023-05-07T15:42:56;22.60;80.50
7046;DHT22;3564;53.326;10.356;2023-05-07T15:45:23;22.50;80.00
7046;DHT22;3564;53.326;10.356;2023-05-07T15:47:48;22.50;80.30
7046;DHT22;3564;53.326;10.356;2023-05-07T15:50:14;22.50;80.20
7046;DHT22;3564;53.326;10.356;2023-05-07T15:52:39;22.40;80.20
7046;DHT22;3564;53.326;10.356;2023-05-07T15:55:07;22.40;79.80